sensor_id;sensor_type;location;lat;lon;timestamp;temperature;humidity
13436;DHT22;6790;49.520;8.504;2024-02-21T00:02:11;7.50;99.90
13436;DHT22;6790;49.520;8.504;2024-02-21T00:04:37;7.50;99.90
13436;DHT22;6790;49.520;8.504;2024-02-21T00:07:05;7.50;99.90
13436;DHT22;6790;49.520;8.504;2024-02-21T00:09:30;7.50;99.90
13436;DHT22;6790;49.520;8.504;2024-02-21T00:11:56;7.50;99.90
13436;DHT22;6790;49.520;8.504;2024-02-21T00:14:24;7.50;99.90
13436;DHT22;6790;49.520;8.504;2024-02-21T00:16:49;7.60;99.90
13436;DHT22;6790;49.520;8.504;2024-02-21T00:19:15;7.70;99.90
13436;DHT22;6790;49.520;8.504;2024-02-21T00:21:40;7.70;99.90
13436;DHT22;6790;49.520;8.504;2024-02-21T00:24:06;7.80;99.90
13436;DHT22;6790;49.520;8.504;2024-02-21T00:26:32;7.80;99.90
13436;DHT22;6790;49.520;8.504;2024-02-21T00:28:58;7.80;99.90
13436;DHT22;6790;49.520;8.504;2024-02-21T00:31:23;7.80;99.90
13436;DHT22;6790;49.520;8.504;2024-02-21T00:33:49;7.90;99.90
13436;DHT22;6790;49.520;8.504;2024-02-21T00:36:16;7.90;99.90
13436;DHT22;6790;49.520;8.504;2024-02-21T00:38:41;7.90;99.90
13436;DHT22;6790;49.520;8.504;2024-02-21T00:41:07;7.80;99.90
13436;DHT22;6790;49.520;8.504;2024-02-21T00:43:33;7.80;99.90
13436;DHT22;6790;49.520;8.504;2024-02-21T00:45:59;7.80;99.90
13436;DHT22;6790;49.520;8.504;2024-02-21T00:48:24;7.80;99.90
13436;DHT22;6790;49.520;8.504;2024-02-21T00:50:50;7.70;99.90
13436;DHT22;6790;49.520;8.504;2024-02-21T00:53:16;7.60;99.90
13436;DHT22;6790;49.520;8.504;2024-02-21T00:55:41;7.60;99.90
13436;DHT22;6790;49.520;8.504;2024-02-21T00:58:08;7.70;99.90
13436;DHT22;6790;49.520;8.504;2024-02-21T01:00:34;7.70;99.90
13436;DHT22;6790;49.520;8.504;2024-02-21T01:03:00;7.70;99.90
13436;DHT22;6790;49.520;8.504;2024-02-21T01:05:25;7.60;99.90
13436;DHT22;6790;49.520;8.504;2024-02-21T01:07:52;7.60;99.90
13436;DHT22;6790;49.520;8.504;2024-02-21T01:10:18;7.50;99.90
13436;DHT22;6790;49.520;8.504;2024-02-21T01:12:44;7.40;99.90
13436;DHT22;6790;49.520;8.504;2024-02-21T01:15:09;7.50;99.90
13436;DHT22;6790;49.520;8.504;2024-02-21T01:17:37;7.40;99.90
13436;DHT22;6790;49.520;8.504;2024-02-21T01:20:03;7.40;99.90
13436;DHT22;6790;49.520;8.504;2024-02-21T01:22:31;7.30;99.90
13436;DHT22;6790;49.520;8.504;2024-02-21T01:24:56;7.30;99.90
13436;DHT22;6790;49.520;8.504;2024-02-21T01:27:22;7.30;99.90
13436;DHT22;6790;49.520;8.504;2024-02-21T01:29:48;7.30;99.90
13436;DHT22;6790;49.520;8.504;2024-02-21T01:32:15;7.30;99.90
13436;DHT22;6790;49.520;8.504;2024-02-21T01:34:41;7.20;99.90
13436;DHT22;6790;49.520;8.504;2024-02-21T01:37:07;7.20;99.90
13436;DHT22;6790;49.520;8.504;2024-02-21T01:39:33;7.20;99.90
13436;DHT22;6790;49.520;8.504;2024-02-21T01:41:59;7.20;99.90
13436;DHT22;6790;49.520;8.504;2024-02-21T01:44:25;7.20;99.90
13436;DHT22;6790;49.520;8.504;2024-02-21T01:46:52;7.20;99.90
13436;DHT22;6790;49.520;8.504;2024-02-21T01:49:19;7.20;99.90
13436;DHT22;6790;49.520;8.504;2024-02-21T01:51:46;7.20;99.90
13436;DHT22;6790;49.520;8.504;2024-02-21T01:54:14;7.20;99.90
13436;DHT22;6790;49.520;8.504;2024-02-21T01:56:41;7.20;99.90
13436;DHT22;6790;49.520;8.504;2024-02-21T01:59:08;7.20;99.90
13436;DHT22;6790;49.520;8.504;2024-02-21T02:01:33;7.20;99.90
13436;DHT22;6790;49.520;8.504;2024-02-21T02:03:59;7.10;99.90
13436;DHT22;6790;49.520;8.504;2024-02-21T02:06:25;7.20;99.90
13436;DHT22;6790;49.520;8.504;2024-02-21T02:08:51;7.20;99.90
13436;DHT22;6790;49.520;8.504;2024-02-21T02:11:17;7.30;99.90
13436;DHT22;6790;49.520;8.504;2024-02-21T02:13:43;7.20;99.90
13436;DHT22;6790;49.520;8.504;2024-02-21T02:16:09;7.20;99.90
13436;DHT22;6790;49.520;8.504;2024-02-21T02:18:35;7.20;99.90
13436;DHT22;6790;49.520;8.504;2024-02-21T02:21:01;7.20;99.90
13436;DHT22;6790;49.520;8.504;2024-02-21T02:23:30;7.10;99.90
13436;DHT22;6790;49.520;8.504;2024-02-21T02:25:59;7.00;99.90
13436;DHT22;6790;49.520;8.504;2024-02-21T02:28:26;7.00;99.90
13436;DHT22;6790;49.520;8.504;2024-02-21T02:30:52;7.00;99.90
13436;DHT22;6790;49.520;8.504;2024-02-21T02:33:18;6.90;99.90
13436;DHT22;6790;49.520;8.504;2024-02-21T02:35:44;6.80;99.90
13436;DHT22;6790;49.520;8.504;2024-02-21T02:38:11;6.80;99.90
13436;DHT22;6790;49.520;8.504;2024-02-21T02:40:38;6.80;99.90
13436;DHT22;6790;49.520;8.504;2024-02-21T02:43:04;6.70;99.90
13436;DHT22;6790;49.520;8.504;2024-02-21T02:45:29;6.70;99.90
13436;DHT22;6790;49.520;8.504;2024-02-21T02:47:56;6.70;99.90
13436;DHT22;6790;49.520;8.504;2024-02-21T02:50:23;6.80;99.90
13436;DHT22;6790;49.520;8.504;2024-02-21T02:52:49;6.70;99.90
13436;DHT22;6790;49.520;8.504;2024-02-21T02:55:15;6.70;99.90
13436;DHT22;6790;49.520;8.504;2024-02-21T02:57:41;6.70;99.90
13436;DHT22;6790;49.520;8.504;2024-02-21T03:00:13;6.80;99.90
13436;DHT22;6790;49.520;8.504;2024-02-21T03:02:41;6.80;99.90
13436;DHT22;6790;49.520;8.504;2024-02-21T03:05:15;6.80;99.90
13436;DHT22;6790;49.520;8.504;2024-02-21T03:07:45;6.80;99.90
13436;DHT22;6790;49.520;8.504;2024-02-21T03:10:12;6.80;99.90
13436;DHT22;6790;49.520;8.504;2024-02-21T03:12:38;6.80;99.90
13436;DHT22;6790;49.520;8.504;2024-02-21T03:15:05;6.80;99.90
13436;DHT22;6790;49.520;8.504;2024-02-21T03:17:31;6.80;99.90
13436;DHT22;6790;49.520;8.504;2024-02-21T03:19:59;6.80;99.90
13436;DHT22;6790;49.520;8.504;2024-02-21T03:22:26;6.70;99.90
13436;DHT22;6790;49.520;8.504;2024-02-21T03:24:51;6.70;99.90
13436;DHT22;6790;49.520;8.504;2024-02-21T03:27:17;6.60;99.90
13436;DHT22;6790;49.520;8.504;2024-02-21T03:29:43;6.60;99.90
13436;DHT22;6790;49.520;8.504;2024-02-21T03:32:09;6.50;99.90
13436;DHT22;6790;49.520;8.504;2024-02-21T03:34:35;6.50;99.90
13436;DHT22;6790;49.520;8.504;2024-02-21T03:37:00;6.40;99.90
13436;DHT22;6790;49.520;8.504;2024-02-21T03:39:26;6.40;99.90
13436;DHT22;6790;49.520;8.504;2024-02-21T03:41:52;6.40;99.90
13436;DHT22;6790;49.520;8.504;2024-02-21T03:44:17;6.50;99.90
13436;DHT22;6790;49.520;8.504;2024-02-21T03:46:43;6.40;99.90
13436;DHT22;6790;49.520;8.504;2024-02-21T03:49:09;6.30;99.90
13436;DHT22;6790;49.520;8.504;2024-02-21T03:51:34;6.20;99.90
13436;DHT22;6790;49.520;8.504;2024-02-21T03:54:00;6.30;99.90
13436;DHT22;6790;49.520;8.504;2024-02-21T03:56:26;6.40;99.90
13436;DHT22;6790;49.520;8.504;2024-02-21T03:58:52;6.50;99.90
13436;DHT22;6790;49.520;8.504;2024-02-21T04:01:17;6.50;99.90
13436;DHT22;6790;49.520;8.504;2024-02-21T04:03:44;6.60;99.90
13436;DHT22;6790;49.520;8.504;2024-02-21T04:06:10;6.60;99.90
13436;DHT22;6790;49.520;8.504;2024-02-21T04:08:36;6.70;99.90
13436;DHT22;6790;49.520;8.504;2024-02-21T04:11:02;6.80;99.90
13436;DHT22;6790;49.520;8.504;2024-02-21T04:13:27;6.80;99.90
13436;DHT22;6790;49.520;8.504;2024-02-21T04:15:53;6.70;99.90
13436;DHT22;6790;49.520;8.504;2024-02-21T04:18:19;6.70;99.90
13436;DHT22;6790;49.520;8.504;2024-02-21T04:20:45;6.70;99.90
13436;DHT22;6790;49.520;8.504;2024-02-21T04:23:10;6.70;99.90
13436;DHT22;6790;49.520;8.504;2024-02-21T04:25:36;6.70;99.90
13436;DHT22;6790;49.520;8.504;2024-02-21T04:28:02;6.70;99.90
13436;DHT22;6790;49.520;8.504;2024-02-21T04:30:28;6.70;99.90
13436;DHT22;6790;49.520;8.504;2024-02-21T04:32:54;6.60;99.90
13436;DHT22;6790;49.520;8.504;2024-02-21T04:35:20;6.60;99.90
13436;DHT22;6790;49.520;8.504;2024-02-21T04:37:46;6.50;99.90
13436;DHT22;6790;49.520;8.504;2024-02-21T04:40:11;6.40;99.90
13436;DHT22;6790;49.520;8.504;2024-02-21T04:42:38;6.40;99.90
13436;DHT22;6790;49.520;8.504;2024-02-21T04:45:04;6.40;99.90
13436;DHT22;6790;49.520;8.504;2024-02-21T04:47:30;6.40;99.90
13436;DHT22;6790;49.520;8.504;2024-02-21T04:49:56;6.40;99.90
13436;DHT22;6790;49.520;8.504;2024-02-21T04:52:22;6.30;99.90
13436;DHT22;6790;49.520;8.504;2024-02-21T04:54:47;6.30;99.90
13436;DHT22;6790;49.520;8.504;2024-02-21T04:57:14;6.20;99.90
13436;DHT22;6790;49.520;8.504;2024-02-21T04:59:45;6.10;99.90
13436;DHT22;6790;49.520;8.504;2024-02-21T05:02:13;6.00;99.90
13436;DHT22;6790;49.520;8.504;2024-02-21T05:04:39;6.00;99.90
13436;DHT22;6790;49.520;8.504;2024-02-21T05:07:06;5.90;99.90
13436;DHT22;6790;49.520;8.504;2024-02-21T05:09:32;5.90;99.90
13436;DHT22;6790;49.520;8.504;2024-02-21T05:11:58;6.00;99.90
13436;DHT22;6790;49.520;8.504;2024-02-21T05:14:26;6.00;99.90
13436;DHT22;6790;49.520;8.504;2024-02-21T05:16:52;6.10;99.90
13436;DHT22;6790;49.520;8.504;2024-02-21T05:19:19;6.10;99.90
13436;DHT22;6790;49.520;8.504;2024-02-21T05:21:44;6.20;99.90
13436;DHT22;6790;49.520;8.504;2024-02-21T05:24:10;6.20;99.90
13436;DHT22;6790;49.520;8.504;2024-02-21T05:26:36;6.20;99.90
13436;DHT22;6790;49.520;8.504;2024-02-21T05:29:02;6.20;99.90
13436;DHT22;6790;49.520;8.504;2024-02-21T05:34:15;6.30;99.90
13436;DHT22;6790;49.520;8.504;2024-02-21T05:36:41;6.30;99.90
13436;DHT22;6790;49.520;8.504;2024-02-21T05:39:07;6.20;99.90
13436;DHT22;6790;49.520;8.504;2024-02-21T05:41:32;6.10;99.90
13436;DHT22;6790;49.520;8.504;2024-02-21T05:43:58;6.00;99.90
13436;DHT22;6790;49.520;8.504;2024-02-21T05:46:24;6.00;99.90
13436;DHT22;6790;49.520;8.504;2024-02-21T05:48:50;6.10;99.90
13436;DHT22;6790;49.520;8.504;2024-02-21T05:51:15;6.00;99.90
13436;DHT22;6790;49.520;8.504;2024-02-21T05:53:41;5.90;99.90
13436;DHT22;6790;49.520;8.504;2024-02-21T05:56:11;5.90;99.90
13436;DHT22;6790;49.520;8.504;2024-02-21T05:58:37;5.80;99.90
13436;DHT22;6790;49.520;8.504;2024-02-21T06:01:03;5.80;99.90
13436;DHT22;6790;49.520;8.504;2024-02-21T06:03:30;5.70;99.90
13436;DHT22;6790;49.520;8.504;2024-02-21T06:05:56;5.50;99.90
13436;DHT22;6790;49.520;8.504;2024-02-21T06:08:21;5.40;99.90
13436;DHT22;6790;49.520;8.504;2024-02-21T06:10:47;5.30;99.90
13436;DHT22;6790;49.520;8.504;2024-02-21T06:13:14;5.20;99.90
13436;DHT22;6790;49.520;8.504;2024-02-21T06:15:40;5.20;99.90
13436;DHT22;6790;49.520;8.504;2024-02-21T06:18:06;5.20;99.90
13436;DHT22;6790;49.520;8.504;2024-02-21T06:20:31;5.30;99.90
13436;DHT22;6790;49.520;8.504;2024-02-21T06:22:57;5.30;99.90
13436;DHT22;6790;49.520;8.504;2024-02-21T06:25:23;5.30;99.90
13436;DHT22;6790;49.520;8.504;2024-02-21T06:27:48;5.30;99.90
13436;DHT22;6790;49.520;8.504;2024-02-21T06:30:14;5.30;99.90
13436;DHT22;6790;49.520;8.504;2024-02-21T06:32:40;5.30;99.90
13436;DHT22;6790;49.520;8.504;2024-02-21T06:35:06;5.20;99.90
13436;DHT22;6790;49.520;8.504;2024-02-21T06:37:32;5.20;99.90
13436;DHT22;6790;49.520;8.504;2024-02-21T06:39:58;5.30;99.90
13436;DHT22;6790;49.520;8.504;2024-02-21T06:42:25;5.30;99.90
13436;DHT22;6790;49.520;8.504;2024-02-21T06:44:52;5.20;99.90
13436;DHT22;6790;49.520;8.504;2024-02-21T06:47:17;5.30;99.90
13436;DHT22;6790;49.520;8.504;2024-02-21T06:49:47;5.30;99.90
13436;DHT22;6790;49.520;8.504;2024-02-21T06:52:13;5.30;99.90
13436;DHT22;6790;49.520;8.504;2024-02-21T06:54:42;5.30;99.90
13436;DHT22;6790;49.520;8.504;2024-02-21T06:57:08;5.20;99.90
13436;DHT22;6790;49.520;8.504;2024-02-21T06:59:34;5.30;99.90
13436;DHT22;6790;49.520;8.504;2024-02-21T07:01:59;5.30;99.90
13436;DHT22;6790;49.520;8.504;2024-02-21T07:04:26;5.30;99.90
13436;DHT22;6790;49.520;8.504;2024-02-21T07:06:52;5.40;99.90
13436;DHT22;6790;49.520;8.504;2024-02-21T07:09:18;5.40;99.90
13436;DHT22;6790;49.520;8.504;2024-02-21T07:11:44;5.50;99.90
13436;DHT22;6790;49.520;8.504;2024-02-21T07:14:09;5.50;99.90
13436;DHT22;6790;49.520;8.504;2024-02-21T07:16:35;5.60;99.90
13436;DHT22;6790;49.520;8.504;2024-02-21T07:19:01;5.60;99.90
13436;DHT22;6790;49.520;8.504;2024-02-21T07:21:27;5.60;99.90
13436;DHT22;6790;49.520;8.504;2024-02-21T07:23:53;5.60;99.90
13436;DHT22;6790;49.520;8.504;2024-02-21T07:26:19;5.70;99.90
13436;DHT22;6790;49.520;8.504;2024-02-21T07:28:44;5.80;99.90
13436;DHT22;6790;49.520;8.504;2024-02-21T07:31:11;6.00;99.90
13436;DHT22;6790;49.520;8.504;2024-02-21T07:33:37;6.00;99.90
13436;DHT22;6790;49.520;8.504;2024-02-21T07:36:10;6.10;99.90
13436;DHT22;6790;49.520;8.504;2024-02-21T07:38:36;6.20;99.90
13436;DHT22;6790;49.520;8.504;2024-02-21T07:41:02;6.30;99.90
13436;DHT22;6790;49.520;8.504;2024-02-21T07:43:29;6.40;99.90
13436;DHT22;6790;49.520;8.504;2024-02-21T07:45:55;6.50;99.90
13436;DHT22;6790;49.520;8.504;2024-02-21T07:48:21;6.50;99.90
13436;DHT22;6790;49.520;8.504;2024-02-21T07:50:50;6.70;99.90
13436;DHT22;6790;49.520;8.504;2024-02-21T07:53:16;6.80;99.90
13436;DHT22;6790;49.520;8.504;2024-02-21T07:55:42;6.90;99.90
13436;DHT22;6790;49.520;8.504;2024-02-21T07:58:07;6.90;99.90
13436;DHT22;6790;49.520;8.504;2024-02-21T08:00:33;7.00;99.90
13436;DHT22;6790;49.520;8.504;2024-02-21T08:02:59;7.10;99.90
13436;DHT22;6790;49.520;8.504;2024-02-21T08:05:25;7.20;99.90
13436;DHT22;6790;49.520;8.504;2024-02-21T08:07:50;7.30;99.90
13436;DHT22;6790;49.520;8.504;2024-02-21T08:10:16;7.30;99.90
13436;DHT22;6790;49.520;8.504;2024-02-21T08:12:42;7.40;99.90
13436;DHT22;6790;49.520;8.504;2024-02-21T08:15:08;7.40;99.90
13436;DHT22;6790;49.520;8.504;2024-02-21T08:17:36;7.50;99.90
13436;DHT22;6790;49.520;8.504;2024-02-21T08:20:03;7.50;99.90
13436;DHT22;6790;49.520;8.504;2024-02-21T08:22:30;7.50;99.90
13436;DHT22;6790;49.520;8.504;2024-02-21T08:24:55;7.50;99.90
13436;DHT22;6790;49.520;8.504;2024-02-21T08:27:21;7.50;99.90
13436;DHT22;6790;49.520;8.504;2024-02-21T09:40:32;9.50;99.90
13436;DHT22;6790;49.520;8.504;2024-02-21T09:43:02;9.60;99.90
13436;DHT22;6790;49.520;8.504;2024-02-21T09:45:34;9.70;99.90
13436;DHT22;6790;49.520;8.504;2024-02-21T09:48:25;9.80;99.90
13436;DHT22;6790;49.520;8.504;2024-02-21T09:50:55;9.70;99.90
13436;DHT22;6790;49.520;8.504;2024-02-21T09:53:22;9.90;99.90
13436;DHT22;6790;49.520;8.504;2024-02-21T09:55:50;9.80;99.90
13436;DHT22;6790;49.520;8.504;2024-02-21T09:58:16;9.70;99.90
13436;DHT22;6790;49.520;8.504;2024-02-21T10:00:42;9.80;99.90
13436;DHT22;6790;49.520;8.504;2024-02-21T10:03:08;10.00;99.90
13436;DHT22;6790;49.520;8.504;2024-02-21T10:05:37;10.20;99.90
13436;DHT22;6790;49.520;8.504;2024-02-21T10:08:04;10.20;99.90
13436;DHT22;6790;49.520;8.504;2024-02-21T10:10:43;10.20;99.90
13436;DHT22;6790;49.520;8.504;2024-02-21T10:13:31;10.20;99.90
13436;DHT22;6790;49.520;8.504;2024-02-21T10:16:03;10.30;99.90
13436;DHT22;6790;49.520;8.504;2024-02-21T10:18:35;10.30;99.90
13436;DHT22;6790;49.520;8.504;2024-02-21T10:21:05;10.40;99.90
13436;DHT22;6790;49.520;8.504;2024-02-21T10:26:09;10.60;99.90
13436;DHT22;6790;49.520;8.504;2024-02-21T10:28:35;10.50;99.90
13436;DHT22;6790;49.520;8.504;2024-02-21T10:31:00;10.70;99.90
13436;DHT22;6790;49.520;8.504;2024-02-21T10:33:26;10.80;99.90
13436;DHT22;6790;49.520;8.504;2024-02-21T10:35:53;10.80;99.90
13436;DHT22;6790;49.520;8.504;2024-02-21T10:38:19;10.80;99.90
13436;DHT22;6790;49.520;8.504;2024-02-21T10:40:46;10.70;99.90
13436;DHT22;6790;49.520;8.504;2024-02-21T10:43:14;10.90;99.90
13436;DHT22;6790;49.520;8.504;2024-02-21T10:45:43;10.90;99.90
13436;DHT22;6790;49.520;8.504;2024-02-21T10:48:14;11.10;99.90
13436;DHT22;6790;49.520;8.504;2024-02-21T10:50:56;11.10;99.90
13436;DHT22;6790;49.520;8.504;2024-02-21T10:53:41;11.00;99.90
13436;DHT22;6790;49.520;8.504;2024-02-21T10:56:29;10.90;99.90
13436;DHT22;6790;49.520;8.504;2024-02-21T10:58:58;11.10;99.90
13436;DHT22;6790;49.520;8.504;2024-02-21T11:01:23;11.10;99.90
13436;DHT22;6790;49.520;8.504;2024-02-21T11:03:54;11.20;99.90
13436;DHT22;6790;49.520;8.504;2024-02-21T11:06:21;11.30;99.90
13436;DHT22;6790;49.520;8.504;2024-02-21T11:08:47;11.30;99.90
13436;DHT22;6790;49.520;8.504;2024-02-21T11:11:28;11.40;99.90
13436;DHT22;6790;49.520;8.504;2024-02-21T11:14:10;11.30;99.90
13436;DHT22;6790;49.520;8.504;2024-02-21T11:16:42;11.40;99.90
13436;DHT22;6790;49.520;8.504;2024-02-21T11:19:09;11.50;99.90
13436;DHT22;6790;49.520;8.504;2024-02-21T11:21:44;11.50;99.90
13436;DHT22;6790;49.520;8.504;2024-02-21T11:24:10;11.60;99.90
13436;DHT22;6790;49.520;8.504;2024-02-21T11:26:37;11.50;99.90
13436;DHT22;6790;49.520;8.504;2024-02-21T11:29:03;11.50;99.90
13436;DHT22;6790;49.520;8.504;2024-02-21T11:31:43;11.60;99.90
13436;DHT22;6790;49.520;8.504;2024-02-21T11:34:11;11.70;99.90
13436;DHT22;6790;49.520;8.504;2024-02-21T11:36:50;11.60;99.90
13436;DHT22;6790;49.520;8.504;2024-02-21T11:39:24;11.70;99.90
13436;DHT22;6790;49.520;8.504;2024-02-21T11:42:07;11.80;99.90
13436;DHT22;6790;49.520;8.504;2024-02-21T11:44:35;11.50;99.90
13436;DHT22;6790;49.520;8.504;2024-02-21T11:47:04;11.50;99.90
13436;DHT22;6790;49.520;8.504;2024-02-21T11:49:30;11.40;99.90
13436;DHT22;6790;49.520;8.504;2024-02-21T11:52:03;11.40;99.90
13436;DHT22;6790;49.520;8.504;2024-02-21T11:54:33;11.40;99.90
13436;DHT22;6790;49.520;8.504;2024-02-21T11:57:00;11.50;99.90
13436;DHT22;6790;49.520;8.504;2024-02-21T11:59:26;11.40;99.90
13436;DHT22;6790;49.520;8.504;2024-02-21T12:01:53;11.40;99.90
13436;DHT22;6790;49.520;8.504;2024-02-21T12:04:20;11.30;99.90
13436;DHT22;6790;49.520;8.504;2024-02-21T12:06:46;11.50;99.90
13436;DHT22;6790;49.520;8.504;2024-02-21T12:09:17;11.50;99.90
13436;DHT22;6790;49.520;8.504;2024-02-21T12:11:44;11.60;99.90
13436;DHT22;6790;49.520;8.504;2024-02-21T12:14:10;11.60;99.90
13436;DHT22;6790;49.520;8.504;2024-02-21T12:16:36;11.50;99.90
13436;DHT22;6790;49.520;8.504;2024-02-21T12:19:03;11.50;99.90
13436;DHT22;6790;49.520;8.504;2024-02-21T12:21:32;11.60;99.90
13436;DHT22;6790;49.520;8.504;2024-02-21T12:24:20;11.60;99.90
13436;DHT22;6790;49.520;8.504;2024-02-21T12:26:47;11.50;99.90
13436;DHT22;6790;49.520;8.504;2024-02-21T12:29:13;11.60;99.90
13436;DHT22;6790;49.520;8.504;2024-02-21T12:31:39;11.70;99.90
13436;DHT22;6790;49.520;8.504;2024-02-21T12:34:05;11.60;99.90
13436;DHT22;6790;49.520;8.504;2024-02-21T12:36:35;11.50;99.90
13436;DHT22;6790;49.520;8.504;2024-02-21T12:39:02;11.60;99.90
13436;DHT22;6790;49.520;8.504;2024-02-21T12:41:30;11.60;99.90
13436;DHT22;6790;49.520;8.504;2024-02-21T12:43:57;11.60;99.90
13436;DHT22;6790;49.520;8.504;2024-02-21T12:46:23;11.50;99.90
13436;DHT22;6790;49.520;8.504;2024-02-21T12:48:49;11.60;99.90
13436;DHT22;6790;49.520;8.504;2024-02-21T12:51:15;11.60;99.90
13436;DHT22;6790;49.520;8.504;2024-02-21T12:53:41;11.60;99.90
13436;DHT22;6790;49.520;8.504;2024-02-21T12:56:07;11.70;99.90
13436;DHT22;6790;49.520;8.504;2024-02-21T12:58:33;11.70;99.90
13436;DHT22;6790;49.520;8.504;2024-02-21T13:00:58;11.70;99.90
13436;DHT22;6790;49.520;8.504;2024-02-21T13:03:24;11.80;99.90
13436;DHT22;6790;49.520;8.504;2024-02-21T13:05:51;11.60;99.90
13436;DHT22;6790;49.520;8.504;2024-02-21T13:08:16;11.50;99.90
13436;DHT22;6790;49.520;8.504;2024-02-21T13:10:43;11.40;99.90
13436;DHT22;6790;49.520;8.504;2024-02-21T13:13:09;11.40;99.90
13436;DHT22;6790;49.520;8.504;2024-02-21T13:15:34;11.50;99.90
13436;DHT22;6790;49.520;8.504;2024-02-21T13:18:00;11.80;99.90
13436;DHT22;6790;49.520;8.504;2024-02-21T13:20:26;11.80;99.90
13436;DHT22;6790;49.520;8.504;2024-02-21T13:22:52;11.80;99.90
13436;DHT22;6790;49.520;8.504;2024-02-21T13:25:18;11.80;99.90
13436;DHT22;6790;49.520;8.504;2024-02-21T13:27:46;11.80;99.90
13436;DHT22;6790;49.520;8.504;2024-02-21T13:30:13;11.80;99.90
13436;DHT22;6790;49.520;8.504;2024-02-21T13:32:44;11.80;99.90
13436;DHT22;6790;49.520;8.504;2024-02-21T13:35:11;11.70;99.90
13436;DHT22;6790;49.520;8.504;2024-02-21T13:37:38;11.70;99.90
13436;DHT22;6790;49.520;8.504;2024-02-21T13:40:05;11.70;99.90
13436;DHT22;6790;49.520;8.504;2024-02-21T13:42:31;11.60;99.90
13436;DHT22;6790;49.520;8.504;2024-02-21T13:44:57;11.60;99.90
13436;DHT22;6790;49.520;8.504;2024-02-21T13:47:23;11.70;99.90
13436;DHT22;6790;49.520;8.504;2024-02-21T13:49:48;11.70;99.90
13436;DHT22;6790;49.520;8.504;2024-02-21T13:52:14;11.70;99.90
13436;DHT22;6790;49.520;8.504;2024-02-21T13:54:40;11.70;99.90
13436;DHT22;6790;49.520;8.504;2024-02-21T13:57:07;11.80;99.90
13436;DHT22;6790;49.520;8.504;2024-02-21T13:59:32;11.80;99.90
13436;DHT22;6790;49.520;8.504;2024-02-21T14:01:59;11.80;99.90
13436;DHT22;6790;49.520;8.504;2024-02-21T14:04:25;11.80;99.90
13436;DHT22;6790;49.520;8.504;2024-02-21T14:06:50;11.70;99.90
13436;DHT22;6790;49.520;8.504;2024-02-21T14:09:18;11.80;99.90
13436;DHT22;6790;49.520;8.504;2024-02-21T14:11:44;11.80;99.90
13436;DHT22;6790;49.520;8.504;2024-02-21T14:14:11;11.70;99.90
13436;DHT22;6790;49.520;8.504;2024-02-21T14:16:36;11.80;99.90
13436;DHT22;6790;49.520;8.504;2024-02-21T14:19:02;11.70;99.90
13436;DHT22;6790;49.520;8.504;2024-02-21T14:21:28;11.60;99.90
13436;DHT22;6790;49.520;8.504;2024-02-21T14:23:54;11.50;99.90
13436;DHT22;6790;49.520;8.504;2024-02-21T14:26:20;11.40;99.90
13436;DHT22;6790;49.520;8.504;2024-02-21T14:28:47;11.50;99.90
13436;DHT22;6790;49.520;8.504;2024-02-21T14:31:21;11.50;99.90
13436;DHT22;6790;49.520;8.504;2024-02-21T14:33:47;11.50;99.90
13436;DHT22;6790;49.520;8.504;2024-02-21T14:36:16;11.50;99.90
13436;DHT22;6790;49.520;8.504;2024-02-21T14:38:41;11.50;99.90
13436;DHT22;6790;49.520;8.504;2024-02-21T14:41:09;11.50;99.90
13436;DHT22;6790;49.520;8.504;2024-02-21T14:43:37;11.50;99.90
13436;DHT22;6790;49.520;8.504;2024-02-21T14:46:06;11.50;99.90
13436;DHT22;6790;49.520;8.504;2024-02-21T14:48:32;11.60;99.90
13436;DHT22;6790;49.520;8.504;2024-02-21T14:51:02;11.60;99.90
13436;DHT22;6790;49.520;8.504;2024-02-21T14:53:27;11.60;99.90
13436;DHT22;6790;49.520;8.504;2024-02-21T14:55:54;11.50;99.90
13436;DHT22;6790;49.520;8.504;2024-02-21T14:58:20;11.50;99.90
13436;DHT22;6790;49.520;8.504;2024-02-21T15:00:46;11.50;99.90
13436;DHT22;6790;49.520;8.504;2024-02-21T15:03:12;11.50;99.90
13436;DHT22;6790;49.520;8.504;2024-02-21T15:05:41;11.40;99.90
13436;DHT22;6790;49.520;8.504;2024-02-21T15:08:07;11.40;99.90
13436;DHT22;6790;49.520;8.504;2024-02-21T15:10:35;11.40;99.90
13436;DHT22;6790;49.520;8.504;2024-02-21T15:13:01;11.40;99.90
13436;DHT22;6790;49.520;8.504;2024-02-21T15:15:26;11.40;99.90
13436;DHT22;6790;49.520;8.504;2024-02-21T15:17:52;11.30;99.90
13436;DHT22;6790;49.520;8.504;2024-02-21T15:20:18;11.20;99.90
13436;DHT22;6790;49.520;8.504;2024-02-21T15:22:43;11.20;99.90
13436;DHT22;6790;49.520;8.504;2024-02-21T15:25:09;11.20;99.90
13436;DHT22;6790;49.520;8.504;2024-02-21T15:27:41;11.10;99.90
13436;DHT22;6790;49.520;8.504;2024-02-21T15:30:09;11.10;99.90
13436;DHT22;6790;49.520;8.504;2024-02-21T15:32:35;11.10;99.90
13436;DHT22;6790;49.520;8.504;2024-02-21T15:35:03;11.10;99.90
13436;DHT22;6790;49.520;8.504;2024-02-21T15:37:30;11.00;99.90
13436;DHT22;6790;49.520;8.504;2024-02-21T15:39:56;10.90;99.90
13436;DHT22;6790;49.520;8.504;2024-02-21T15:42:21;10.90;99.90
13436;DHT22;6790;49.520;8.504;2024-02-21T15:44:47;10.90;99.90
13436;DHT22;6790;49.520;8.504;2024-02-21T15:47:13;10.80;99.90
13436;DHT22;6790;49.520;8.504;2024-02-21T15:49:40;10.80;99.90
13436;DHT22;6790;49.520;8.504;2024-02-21T15:52:07;10.80;99.90
13436;DHT22;6790;49.520;8.504;2024-02-21T15:54:32;10.80;99.90
13436;DHT22;6790;49.520;8.504;2024-02-21T15:56:58;10.80;99.90
13436;DHT22;6790;49.520;8.504;2024-02-21T15:59:24;10.70;99.90
13436;DHT22;6790;49.520;8.504;2024-02-21T16:01:49;10.70;99.90
13436;DHT22;6790;49.520;8.504;2024-02-21T16:04:15;10.70;99.90
13436;DHT22;6790;49.520;8.504;2024-02-21T16:06:41;10.70;99.90
13436;DHT22;6790;49.520;8.504;2024-02-21T16:09:08;10.70;99.90
13436;DHT22;6790;49.520;8.504;2024-02-21T16:11:34;10.60;99.90
13436;DHT22;6790;49.520;8.504;2024-02-21T16:14:03;10.50;99.90
13436;DHT22;6790;49.520;8.504;2024-02-21T16:16:29;10.50;99.90
13436;DHT22;6790;49.520;8.504;2024-02-21T16:18:55;10.50;99.90
13436;DHT22;6790;49.520;8.504;2024-02-21T16:21:21;10.50;99.90
13436;DHT22;6790;49.520;8.504;2024-02-21T16:23:47;10.50;99.90
13436;DHT22;6790;49.520;8.504;2024-02-21T16:26:12;10.40;99.90
13436;DHT22;6790;49.520;8.504;2024-02-21T16:28:39;10.40;99.90
13436;DHT22;6790;49.520;8.504;2024-02-21T16:31:05;10.40;99.90
13436;DHT22;6790;49.520;8.504;2024-02-21T16:33:30;10.40;99.90
13436;DHT22;6790;49.520;8.504;2024-02-21T16:35:56;10.40;99.90
13436;DHT22;6790;49.520;8.504;2024-02-21T16:38:22;10.30;99.90
13436;DHT22;6790;49.520;8.504;2024-02-21T16:40:47;10.20;99.90
13436;DHT22;6790;49.520;8.504;2024-02-21T16:43:14;10.20;99.90
13436;DHT22;6790;49.520;8.504;2024-02-21T16:45:40;10.20;99.90
13436;DHT22;6790;49.520;8.504;2024-02-21T16:48:06;10.20;99.90
13436;DHT22;6790;49.520;8.504;2024-02-21T16:50:32;10.20;99.90
13436;DHT22;6790;49.520;8.504;2024-02-21T16:52:57;10.10;99.90
13436;DHT22;6790;49.520;8.504;2024-02-21T16:55:23;10.10;99.90
13436;DHT22;6790;49.520;8.504;2024-02-21T16:57:49;10.00;99.90
13436;DHT22;6790;49.520;8.504;2024-02-21T17:00:15;10.00;99.90
13436;DHT22;6790;49.520;8.504;2024-02-21T17:02:41;10.00;99.90
13436;DHT22;6790;49.520;8.504;2024-02-21T17:05:07;10.00;99.90
13436;DHT22;6790;49.520;8.504;2024-02-21T17:07:34;10.00;99.90
13436;DHT22;6790;49.520;8.504;2024-02-21T17:10:00;10.00;99.90